16:35
Airports
History
Links
Donate
Help keep this website running!
PayPal
Bitcoin
This page is community maintained. The information is intended for PC simulator navigation or reference.
Always use approved charts for navigation.
LFKA
Albertville
Albertville (LFKA)
Tournon, Rhône-Alpes, France (73460)
(C)
Lat/Lng:45° 37' 34.51" N / 6° 19' 43.28" E
45.626253 / 6.328688
Elevation:1035'ft / 315mMSL
ID / ICAO:LFKA
Runways:1
Longest:23-05
Asphalt 805m / 2,640ft
Controlled:Yes
Nearby Weather16:30 GMT 2017-09-23
Nearby weather at LFLB, Aix-Les-Bains located 21.7 nautical miles from LFKA
Altimeter: 30.09
Visibility: 6.2 statute miles
Wind: 2 knots (from 280°)
Temp: 20°c / 68°f
Humidity: 68.4%

METAR: LFLB 231630Z AUTO 28002KT CAVOK 20/14 Q1019 NOSIG

(Powered by phpweather)
Airport Radio Frequencies
Albertville MULT: 123.5
Nearby VORs <50NM
Nearby NDBs
Runway 23 / 05
Dimensions:804.7 x 21m 2640' x 69'ft
Surface:Asphalt
Runway 23 [A]Runway 05 [B]
Heading:231°TH 051°TH
Lat:
Lng:
45° 37' 42.55"N
6° 19' 57.79"E
45° 37' 26.48"N
6° 19' 28.77"E
User Notes and Comments
45° 37' 34.51" N / 6° 19' 43.28" E
Distance To
Airport ID:
Nearby Airports
(C) St Remy de Maurienne 17.4 NM
7352 S 188°
(C) Challes-Les-Eaux 17.7 NM
LFLE WSW 255°
(C) Meribel 19.3 NM
LFKX SE 141°
(C) Megeve 20.6 NM
LFHM NE 48°
(C) Aix-Les-Bains 21.7 NM
LFLB ( WX ) W 272°
(C) Courchevel 21.7 NM
LFLJ SE 136°
(C) Annecy Haute-Sovoie Mont Blanc Meythet 23.7 NM
LFLP NNW 332°
VFR Chart
Flight Planning at SkyVector.com